createdAt,value
2023-02-09T00:00:17.173Z,580.00
2023-02-09T00:01:17.202Z,667.30
2023-02-09T00:02:17.200Z,606.60
2023-02-09T00:03:17.148Z,514.70
2023-02-09T00:04:17.134Z,275.50
2023-02-09T00:05:17.099Z,344.10
2023-02-09T00:06:17.171Z,470.70
2023-02-09T00:07:17.083Z,322.50
2023-02-09T00:08:17.102Z,365.40
2023-02-09T00:09:17.070Z,437.90
2023-02-09T00:10:17.053Z,369.00
2023-02-09T00:11:17.064Z,318.80
2023-02-09T00:12:17.026Z,272.60
2023-02-09T00:13:17.049Z,233.30
2023-02-09T00:14:17.615Z,205.80
2023-02-09T00:15:17.002Z,175.90
2023-02-09T00:16:17.101Z,171.00
2023-02-09T00:17:17.008Z,202.30
2023-02-09T00:18:16.980Z,205.10
2023-02-09T00:19:16.946Z,200.80
2023-02-09T00:20:16.961Z,192.90
2023-02-09T00:21:16.973Z,186.60
2023-02-09T00:22:16.925Z,181.40
2023-02-09T00:23:16.898Z,173.90
2023-02-09T00:24:16.920Z,201.10
2023-02-09T00:25:16.909Z,234.10
2023-02-09T00:26:16.910Z,272.60
2023-02-09T00:27:16.859Z,274.50
2023-02-09T00:28:16.901Z,333.00
2023-02-09T00:29:16.856Z,348.40
2023-02-09T00:30:16.870Z,346.30
2023-02-09T00:31:16.964Z,345.30
2023-02-09T00:32:16.845Z,339.00
2023-02-09T00:33:16.797Z,309.60
2023-02-09T00:34:16.808Z,252.40
2023-02-09T00:35:16.793Z,307.50
2023-02-09T00:36:16.819Z,399.40
2023-02-09T00:37:16.766Z,428.30
2023-02-09T00:38:16.767Z,385.80
2023-02-09T00:39:16.743Z,412.50
2023-02-09T00:40:16.736Z,406.70
2023-02-09T00:41:16.749Z,290.20
2023-02-09T00:42:16.724Z,401.20
2023-02-09T00:43:16.709Z,334.90
2023-02-09T00:44:16.702Z,393.60
2023-02-09T00:45:16.679Z,369.20
2023-02-09T00:46:16.735Z,143.60
2023-02-09T00:47:16.689Z,239.20
2023-02-09T00:48:16.634Z,499.50
2023-02-09T00:49:16.666Z,484.50
2023-02-09T00:50:16.648Z,475.80
2023-02-09T00:51:16.663Z,442.20
2023-02-09T00:52:16.627Z,414.20
2023-02-09T00:53:16.640Z,353.90
2023-02-09T00:54:16.586Z,295.10
2023-02-09T00:55:16.573Z,478.00
2023-02-09T00:56:16.596Z,486.50
2023-02-09T00:57:16.532Z,580.50
2023-02-09T00:58:16.539Z,613.50
2023-02-09T00:59:16.530Z,589.70
2023-02-09T01:00:16.520Z,571.40
2023-02-09T01:01:16.603Z,555.80
2023-02-09T01:02:16.510Z,553.60
2023-02-09T01:03:16.499Z,533.00
2023-02-09T01:04:16.494Z,525.10
2023-02-09T01:05:16.485Z,536.00
2023-02-09T01:06:16.499Z,422.40
2023-02-09T01:07:16.429Z,542.30
2023-02-09T01:08:16.439Z,605.40
2023-02-09T01:09:16.439Z,629.30
2023-02-09T01:10:16.431Z,639.00
2023-02-09T01:11:16.436Z,628.10
2023-02-09T01:12:16.393Z,610.30
2023-02-09T01:13:16.387Z,594.30
2023-02-09T01:14:16.366Z,595.50
2023-02-09T01:15:16.353Z,621.80
2023-02-09T01:16:16.438Z,655.40
2023-02-09T01:17:16.331Z,684.70
2023-02-09T01:18:16.327Z,700.50
2023-02-09T01:19:16.322Z,699.90
2023-02-09T01:20:16.302Z,696.10
2023-02-09T01:21:16.348Z,701.90
2023-02-09T01:22:16.303Z,693.70
2023-02-09T01:23:16.288Z,699.80
2023-02-09T01:24:16.285Z,693.50
2023-02-09T01:25:16.249Z,702.20
2023-02-09T01:26:16.276Z,693.20
2023-02-09T01:27:16.239Z,692.40
2023-02-09T01:28:16.278Z,708.30
2023-02-09T01:29:16.213Z,707.80
2023-02-09T01:30:16.199Z,715.10
2023-02-09T01:31:16.281Z,708.20
2023-02-09T01:32:16.158Z,733.00
2023-02-09T01:33:16.157Z,720.50
2023-02-09T01:34:16.158Z,703.60
2023-02-09T01:35:16.128Z,698.60
2023-02-09T01:36:16.164Z,691.80
2023-02-09T01:37:16.143Z,692.10
2023-02-09T01:38:16.146Z,691.10
2023-02-09T01:39:16.111Z,657.80
2023-02-09T01:40:16.087Z,609.80
2023-02-09T01:41:16.112Z,484.00
2023-02-09T01:42:16.059Z,426.30
2023-02-09T01:43:16.059Z,434.50
2023-02-09T01:44:16.045Z,454.50
2023-02-09T01:45:16.046Z,447.40
2023-02-09T01:46:16.102Z,437.90
2023-02-09T01:47:16.025Z,463.30
2023-02-09T01:48:16.014Z,505.10
2023-02-09T01:49:16.004Z,346.00
2023-02-09T01:50:15.988Z,330.80
2023-02-09T01:51:16.010Z,267.90
2023-02-09T01:52:15.983Z,306.40
2023-02-09T01:53:15.946Z,330.30
2023-02-09T01:54:15.954Z,303.20
2023-02-09T01:55:15.944Z,445.40
2023-02-09T01:56:16.006Z,425.50
2023-02-09T01:57:15.912Z,393.90
2023-02-09T01:58:15.930Z,405.50
2023-02-09T01:59:15.894Z,421.70
2023-02-09T02:00:15.881Z,423.80
2023-02-09T02:01:15.934Z,440.60
2023-02-09T02:02:15.908Z,420.50
2023-02-09T02:03:15.845Z,376.40
2023-02-09T02:04:15.836Z,400.80
2023-02-09T02:05:15.820Z,380.40
2023-02-09T02:06:15.857Z,369.00
2023-02-09T02:07:15.806Z,372.80
2023-02-09T02:08:15.818Z,364.70
2023-02-09T02:09:15.788Z,346.70
2023-02-09T02:10:15.775Z,345.90
2023-02-09T02:11:15.808Z,306.30
2023-02-09T02:12:15.753Z,320.50
2023-02-09T02:13:15.731Z,285.70
2023-02-09T02:14:15.724Z,310.30
2023-02-09T02:15:15.720Z,269.20
2023-02-09T02:16:15.843Z,258.30
2023-02-09T02:17:15.684Z,297.50
2023-02-09T02:18:15.683Z,284.90
2023-02-09T02:19:15.666Z,295.20
2023-02-09T02:20:15.646Z,287.40
2023-02-09T02:21:15.694Z,288.20
2023-02-09T02:22:15.639Z,300.70
2023-02-09T02:23:15.617Z,259.90
2023-02-09T02:24:15.663Z,226.30
2023-02-09T02:25:15.617Z,231.30
2023-02-09T02:26:15.630Z,291.70
2023-02-09T02:27:15.598Z,349.90
2023-02-09T02:28:15.609Z,381.30
2023-02-09T02:29:15.562Z,387.50
2023-02-09T02:30:15.550Z,376.40
2023-02-09T02:31:15.746Z,294.30
2023-02-09T02:32:15.541Z,389.30
2023-02-09T02:33:15.502Z,383.30
2023-02-09T02:34:15.513Z,391.20
2023-02-09T02:35:15.477Z,426.30
2023-02-09T02:36:15.510Z,478.40
2023-02-09T02:37:15.462Z,444.00
2023-02-09T02:38:15.463Z,414.20
2023-02-09T02:39:15.465Z,413.60
2023-02-09T02:40:15.436Z,437.10
2023-02-09T02:41:15.457Z,423.30
2023-02-09T02:42:15.406Z,414.90
2023-02-09T02:43:15.422Z,421.70
2023-02-09T02:44:15.398Z,423.00
2023-02-09T02:45:15.395Z,410.80
2023-02-09T02:46:15.469Z,416.40
2023-02-09T02:47:15.375Z,413.00
2023-02-09T02:48:15.368Z,408.30
2023-02-09T02:49:15.384Z,416.80
2023-02-09T02:50:15.338Z,412.20
2023-02-09T02:51:15.372Z,417.60
2023-02-09T02:52:15.305Z,414.60
2023-02-09T02:53:15.308Z,406.70
2023-02-09T02:54:15.295Z,406.20
2023-02-09T02:55:15.301Z,403.20
2023-02-09T02:56:15.274Z,397.90
2023-02-09T02:57:15.300Z,405.50
2023-02-09T02:58:15.278Z,416.00
2023-02-09T02:59:15.242Z,405.60
2023-02-09T03:00:15.221Z,391.80
2023-02-09T03:01:15.253Z,393.80
2023-02-09T03:02:15.254Z,413.10
2023-02-09T03:03:15.193Z,412.50
2023-02-09T03:04:15.195Z,408.00
2023-02-09T03:05:15.178Z,410.10
2023-02-09T03:06:15.149Z,416.80
2023-02-09T03:07:15.191Z,414.80
2023-02-09T03:08:15.146Z,401.70
2023-02-09T03:09:15.189Z,414.20
2023-02-09T03:10:15.117Z,392.00
2023-02-09T03:11:15.117Z,406.80
2023-02-09T03:12:15.155Z,408.60
2023-02-09T03:13:15.092Z,409.10
2023-02-09T03:14:15.074Z,402.70
2023-02-09T03:15:15.080Z,422.00
2023-02-09T03:16:15.122Z,453.80
2023-02-09T03:17:15.095Z,445.50
2023-02-09T03:18:15.054Z,415.70
2023-02-09T03:19:15.063Z,436.80
2023-02-09T03:20:15.010Z,417.10
2023-02-09T03:21:14.996Z,415.20
2023-02-09T03:22:15.058Z,421.00
2023-02-09T03:23:14.988Z,403.40
2023-02-09T03:24:14.962Z,357.00
2023-02-09T03:25:14.993Z,332.10
2023-02-09T03:26:14.952Z,306.10
2023-02-09T03:27:14.996Z,300.50
2023-02-09T03:28:14.964Z,306.70
2023-02-09T03:29:14.935Z,315.90
2023-02-09T03:30:14.926Z,300.50
2023-02-09T03:31:15.013Z,279.60
2023-02-09T03:32:14.939Z,272.80
2023-02-09T03:33:14.871Z,317.40
2023-02-09T03:34:14.857Z,342.10
2023-02-09T03:35:14.843Z,307.10
2023-02-09T03:36:14.834Z,303.20
2023-02-09T03:37:14.875Z,338.70
2023-02-09T03:38:14.799Z,292.80
2023-02-09T03:39:14.825Z,329.90
2023-02-09T03:40:14.819Z,292.10
2023-02-09T03:41:14.806Z,344.00
2023-02-09T03:42:14.821Z,443.20
2023-02-09T03:43:14.778Z,458.90
2023-02-09T03:44:14.753Z,694.90
2023-02-09T03:45:14.746Z,1171.80
2023-02-09T03:46:14.765Z,1999.90
2023-02-09T03:47:14.758Z,1999.90
2023-02-09T03:48:14.718Z,1999.90
2023-02-09T03:49:14.726Z,1999.90
2023-02-09T03:50:14.690Z,1999.90
2023-02-09T03:51:14.701Z,1999.90
2023-02-09T03:52:14.705Z,1999.90
2023-02-09T03:53:14.664Z,1999.90
2023-02-09T03:54:14.675Z,1999.90
2023-02-09T03:55:14.633Z,1999.90
2023-02-09T03:56:14.624Z,1999.90
2023-02-09T03:57:14.653Z,1999.90
2023-02-09T03:58:14.625Z,1999.90
2023-02-09T03:59:14.595Z,1999.90
2023-02-09T04:00:14.579Z,1999.90
2023-02-09T04:01:14.634Z,1048.80
2023-02-09T04:02:14.715Z,1999.90
2023-02-09T04:03:14.566Z,1363.80
2023-02-09T04:04:14.561Z,1065.90
2023-02-09T04:05:14.521Z,718.60
2023-02-09T04:06:14.519Z,717.50
2023-02-09T04:07:14.512Z,869.80
2023-02-09T04:08:14.525Z,641.00
2023-02-09T04:09:14.494Z,784.80
2023-02-09T04:10:14.458Z,726.20
2023-02-09T04:11:14.465Z,1081.50
2023-02-09T04:12:14.448Z,957.80
2023-02-09T04:13:14.488Z,669.40
2023-02-09T04:14:14.440Z,658.50
2023-02-09T04:15:14.416Z,706.70
2023-02-09T04:16:14.414Z,699.70
2023-02-09T04:17:14.402Z,703.70
2023-02-09T04:18:14.420Z,688.70
2023-02-09T04:19:14.380Z,697.20
2023-02-09T04:20:14.368Z,681.40
2023-02-09T04:21:14.372Z,619.60
2023-02-09T04:22:14.335Z,704.80
2023-02-09T04:23:14.366Z,794.10
2023-02-09T04:24:14.305Z,785.50
2023-02-09T04:25:14.323Z,779.80
2023-02-09T04:26:14.302Z,761.90
2023-02-09T04:27:14.300Z,761.70
2023-02-09T04:28:14.353Z,731.00
2023-02-09T04:29:14.283Z,737.10
2023-02-09T04:30:14.243Z,712.20
2023-02-09T04:31:14.453Z,715.00
2023-02-09T04:32:14.258Z,772.90
2023-02-09T04:33:14.255Z,663.10
2023-02-09T04:34:14.206Z,652.10
2023-02-09T04:35:14.195Z,658.00
2023-02-09T04:36:14.178Z,669.20
2023-02-09T04:37:14.185Z,658.20
2023-02-09T04:38:14.214Z,646.20
2023-02-09T04:39:14.181Z,651.30
2023-02-09T04:40:14.145Z,662.80
2023-02-09T04:41:14.138Z,694.90
2023-02-09T04:42:14.123Z,729.70
2023-02-09T04:43:14.144Z,727.90
2023-02-09T04:44:14.129Z,762.00
2023-02-09T04:45:14.119Z,793.50
2023-02-09T04:46:14.244Z,664.00
2023-02-09T04:47:14.082Z,721.60
2023-02-09T04:48:14.093Z,684.70
2023-02-09T04:49:14.070Z,697.60
2023-02-09T04:50:14.038Z,744.70
2023-02-09T04:51:14.044Z,728.10
2023-02-09T04:52:14.033Z,669.20
2023-02-09T04:53:14.055Z,643.20
2023-02-09T04:54:13.996Z,626.80
2023-02-09T04:55:13.984Z,556.20
2023-02-09T04:56:15.105Z,552.80
2023-02-09T04:57:13.982Z,546.40
2023-02-09T04:58:15.727Z,535.00
2023-02-09T04:59:13.996Z,531.30
2023-02-09T05:00:13.934Z,540.00
2023-02-09T05:01:13.981Z,497.10
2023-02-09T05:02:13.943Z,509.60
2023-02-09T05:03:13.929Z,495.60
2023-02-09T05:04:13.948Z,512.70
2023-02-09T05:05:13.886Z,507.50
2023-02-09T05:06:13.886Z,505.70
2023-02-09T05:07:13.880Z,503.60
2023-02-09T05:08:13.870Z,516.20
2023-02-09T05:09:13.922Z,512.40
2023-02-09T05:10:13.846Z,627.90
2023-02-09T05:11:13.811Z,712.90
2023-02-09T05:12:13.797Z,686.80
2023-02-09T05:13:13.794Z,732.80
2023-02-09T05:14:13.870Z,708.40
2023-02-09T05:15:13.776Z,698.00
2023-02-09T05:16:13.808Z,688.60
2023-02-09T05:17:13.770Z,686.40
2023-02-09T05:18:13.740Z,690.70
2023-02-09T05:19:13.804Z,684.70
2023-02-09T05:20:13.753Z,696.00
2023-02-09T05:21:13.719Z,700.80
2023-02-09T05:22:13.697Z,717.90
2023-02-09T05:23:13.755Z,725.80
2023-02-09T05:24:13.731Z,732.20
2023-02-09T05:25:13.681Z,729.20
2023-02-09T05:26:14.478Z,705.10
2023-02-09T05:27:13.649Z,716.60
2023-02-09T05:28:13.733Z,708.80
2023-02-09T05:29:13.670Z,729.40
2023-02-09T05:30:13.641Z,736.40
2023-02-09T05:31:13.625Z,730.90
2023-02-09T05:32:13.671Z,726.80
2023-02-09T05:33:13.612Z,741.40
2023-02-09T05:34:13.655Z,748.50
2023-02-09T05:35:13.566Z,739.10
2023-02-09T05:36:13.569Z,720.00
2023-02-09T05:37:13.550Z,699.70
2023-02-09T05:38:13.559Z,713.60
2023-02-09T05:39:13.626Z,725.60
2023-02-09T05:40:13.976Z,733.40
2023-02-09T05:41:13.510Z,755.10
2023-02-09T05:42:13.511Z,761.20
2023-02-09T05:43:13.515Z,774.70
2023-02-09T05:44:13.507Z,774.00
2023-02-09T05:45:13.528Z,756.00
2023-02-09T05:46:13.521Z,739.20
2023-02-09T05:47:13.441Z,736.90
2023-02-09T05:48:13.454Z,714.80
2023-02-09T05:49:13.422Z,712.20
2023-02-09T05:50:13.453Z,704.50
2023-02-09T05:51:13.413Z,690.40
2023-02-09T05:52:13.403Z,687.80
2023-02-09T05:53:15.218Z,685.30
2023-02-09T05:54:13.354Z,691.80
2023-02-09T05:55:13.387Z,722.30
2023-02-09T05:56:13.342Z,716.90
2023-02-09T05:57:13.357Z,713.10
2023-02-09T05:58:13.314Z,687.00
2023-02-09T05:59:13.334Z,710.40
2023-02-09T06:00:13.360Z,726.70
2023-02-09T06:01:13.309Z,710.10
2023-02-09T06:02:13.339Z,703.60
2023-02-09T06:03:13.306Z,706.90
2023-02-09T06:04:13.270Z,701.70
2023-02-09T06:05:13.305Z,721.80
2023-02-09T06:06:13.237Z,706.10
2023-02-09T06:07:13.241Z,701.50
2023-02-09T06:08:13.231Z,702.40
2023-02-09T06:09:13.212Z,733.40
2023-02-09T06:10:13.288Z,729.20
2023-02-09T06:11:13.205Z,733.40
2023-02-09T06:12:13.167Z,737.70
2023-02-09T06:13:13.150Z,730.10
2023-02-09T06:14:13.166Z,721.30
2023-02-09T06:15:13.231Z,724.10
2023-02-09T06:16:13.151Z,727.00
2023-02-09T06:17:13.111Z,719.30
2023-02-09T06:18:13.126Z,674.30
2023-02-09T06:19:13.095Z,663.60
2023-02-09T06:20:13.136Z,651.30
2023-02-09T06:21:13.091Z,684.90
2023-02-09T06:22:13.080Z,689.30
2023-02-09T06:23:13.075Z,687.00
2023-02-09T06:24:13.035Z,692.10
2023-02-09T06:25:13.078Z,712.70
2023-02-09T06:26:13.054Z,726.80
2023-02-09T06:27:13.038Z,748.90
2023-02-09T06:28:13.102Z,775.40
2023-02-09T06:29:13.009Z,798.20
2023-02-09T06:30:13.043Z,823.80
2023-02-09T06:31:13.048Z,832.80
2023-02-09T06:32:13.097Z,837.00
2023-02-09T06:33:12.968Z,832.00
2023-02-09T06:34:12.937Z,836.10
2023-02-09T06:35:12.979Z,845.40
2023-02-09T06:36:12.937Z,836.80
2023-02-09T06:37:12.912Z,836.80
2023-02-09T06:38:12.905Z,830.80
2023-02-09T06:39:12.890Z,826.30
2023-02-09T06:40:12.925Z,825.60
2023-02-09T06:41:12.896Z,825.80
2023-02-09T06:42:12.866Z,820.70
2023-02-09T06:43:12.842Z,826.50
2023-02-09T06:44:12.818Z,826.80
2023-02-09T06:45:12.893Z,833.60
2023-02-09T06:46:12.895Z,842.00
2023-02-09T06:47:12.825Z,842.70
2023-02-09T06:48:12.846Z,831.80
2023-02-09T06:49:12.795Z,839.10
2023-02-09T06:50:12.817Z,822.90
2023-02-09T06:51:12.809Z,828.20
2023-02-09T06:52:12.734Z,814.90
2023-02-09T06:53:12.751Z,827.80
2023-02-09T06:54:12.722Z,849.30
2023-02-09T06:55:12.749Z,873.90
2023-02-09T06:56:12.693Z,883.00
2023-02-09T06:57:12.724Z,903.00
2023-02-09T06:58:12.680Z,917.90
2023-02-09T06:59:12.664Z,906.60
2023-02-09T07:00:12.729Z,903.90
2023-02-09T07:01:12.686Z,902.50
2023-02-09T07:02:12.631Z,891.10
2023-02-09T07:03:12.610Z,885.40
2023-02-09T07:04:12.634Z,863.00
2023-02-09T07:05:12.660Z,854.90
2023-02-09T07:06:12.622Z,856.10
2023-02-09T07:07:12.650Z,828.40
2023-02-09T07:08:12.589Z,797.80
2023-02-09T07:09:12.558Z,802.30
2023-02-09T07:10:12.621Z,734.30
2023-02-09T07:11:12.524Z,746.20
2023-02-09T07:12:12.517Z,751.30
2023-02-09T07:13:12.515Z,742.30
2023-02-09T07:14:12.519Z,469.10
2023-02-09T07:15:12.512Z,691.50
2023-02-09T07:16:12.549Z,508.40
2023-02-09T07:17:12.486Z,619.80
2023-02-09T07:18:12.476Z,1009.80
2023-02-09T07:19:12.449Z,727.80
2023-02-09T07:20:12.453Z,745.80
2023-02-09T07:21:12.459Z,922.50
2023-02-09T07:22:12.461Z,863.20
2023-02-09T07:23:12.487Z,957.40
2023-02-09T07:24:12.407Z,985.70
2023-02-09T07:25:12.397Z,676.40
2023-02-09T07:26:12.420Z,910.10
2023-02-09T07:27:12.365Z,708.50
2023-02-09T07:28:12.437Z,538.40
2023-02-09T07:29:12.994Z,503.50
2023-02-09T07:30:12.357Z,352.40
2023-02-09T07:31:12.485Z,378.80
2023-02-09T07:32:12.339Z,408.90
2023-02-09T07:33:12.317Z,311.90
2023-02-09T07:34:12.323Z,311.50
2023-02-09T07:35:12.298Z,319.40
2023-02-09T07:36:12.327Z,303.80
2023-02-09T07:37:12.283Z,329.60
2023-02-09T07:38:12.267Z,266.90
2023-02-09T07:39:12.237Z,134.80
2023-02-09T07:40:12.219Z,209.80
2023-02-09T07:41:12.249Z,202.50
2023-02-09T07:42:12.198Z,140.80
2023-02-09T07:43:12.188Z,118.80
2023-02-09T07:44:12.203Z,130.30
2023-02-09T07:45:12.178Z,184.10
2023-02-09T07:46:12.238Z,209.70
2023-02-09T07:47:12.172Z,178.30
2023-02-09T07:48:12.175Z,149.90
2023-02-09T07:49:12.153Z,129.40
2023-02-09T07:50:12.130Z,109.20
2023-02-09T07:51:12.177Z,95.50
2023-02-09T07:52:12.086Z,72.10
2023-02-09T07:53:12.108Z,70.80
2023-02-09T07:54:12.100Z,69.90
2023-02-09T07:55:12.074Z,61.70
2023-02-09T07:56:12.119Z,59.50
2023-02-09T07:57:12.059Z,55.70
2023-02-09T07:58:12.020Z,63.90
2023-02-09T07:59:12.037Z,86.50
2023-02-09T08:00:12.009Z,119.20
2023-02-09T08:01:12.028Z,127.10
2023-02-09T08:02:12.084Z,123.90
2023-02-09T08:03:11.980Z,108.10
2023-02-09T08:04:11.970Z,100.90
2023-02-09T08:05:11.975Z,78.70
2023-02-09T08:06:11.974Z,60.60
2023-02-09T08:07:11.915Z,60.80
2023-02-09T08:08:11.923Z,54.50
2023-02-09T08:09:11.912Z,31.50
2023-02-09T08:10:11.874Z,24.20
2023-02-09T08:11:11.955Z,23.10
2023-02-09T08:12:11.918Z,23.30
2023-02-09T08:13:11.863Z,22.20
2023-02-09T08:14:11.853Z,23.00
2023-02-09T08:15:11.820Z,21.30
2023-02-09T08:16:11.910Z,17.90
2023-02-09T08:17:11.814Z,17.30
2023-02-09T08:18:13.114Z,16.50
2023-02-09T08:19:11.805Z,16.20
2023-02-09T08:20:11.775Z,14.80
2023-02-09T08:21:11.808Z,14.40
2023-02-09T08:22:11.760Z,13.70
2023-02-09T08:23:11.785Z,12.30
2023-02-09T08:24:11.737Z,13.00
2023-02-09T08:25:11.720Z,13.20
2023-02-09T08:26:11.760Z,13.90
2023-02-09T08:27:11.717Z,13.50
2023-02-09T08:28:11.737Z,14.00
2023-02-09T08:29:11.684Z,11.80
2023-02-09T08:30:11.684Z,14.10
2023-02-09T08:31:11.806Z,12.90
2023-02-09T08:32:11.732Z,13.70
2023-02-09T08:33:11.666Z,13.90
2023-02-09T08:34:11.626Z,12.40
2023-02-09T08:35:11.621Z,12.40
2023-02-09T08:36:11.672Z,11.50
2023-02-09T08:37:11.578Z,11.40
2023-02-09T08:38:11.578Z,10.60
2023-02-09T08:39:11.567Z,11.50
2023-02-09T08:40:11.581Z,10.80
2023-02-09T08:41:11.606Z,10.80
2023-02-09T08:42:11.545Z,11.20
2023-02-09T08:43:11.521Z,9.90
2023-02-09T08:44:11.537Z,10.90
2023-02-09T08:45:11.504Z,11.80
2023-02-09T08:46:11.701Z,10.50
2023-02-09T08:47:11.507Z,11.50
2023-02-09T08:48:11.481Z,11.00
2023-02-09T08:49:11.479Z,10.50
2023-02-09T08:50:11.443Z,9.80
2023-02-09T08:51:11.487Z,10.10
2023-02-09T08:52:11.440Z,10.30
2023-02-09T08:53:11.424Z,10.10
2023-02-09T08:54:11.434Z,11.20
2023-02-09T08:55:11.406Z,10.10
2023-02-09T08:56:11.477Z,10.10
2023-02-09T08:57:11.368Z,10.80
2023-02-09T08:58:11.368Z,10.10
2023-02-09T08:59:11.348Z,10.80
2023-02-09T09:00:11.322Z,9.50
2023-02-09T09:01:11.394Z,11.20
2023-02-09T09:02:11.354Z,10.80
2023-02-09T09:03:11.334Z,8.90
2023-02-09T09:04:11.317Z,8.80
2023-02-09T09:05:11.292Z,8.70
2023-02-09T09:06:11.306Z,9.10
2023-02-09T09:07:11.247Z,9.90
2023-02-09T09:08:11.257Z,9.10
2023-02-09T09:09:11.259Z,8.70
2023-02-09T09:10:11.250Z,9.30
2023-02-09T09:11:11.266Z,8.60
2023-02-09T09:12:11.220Z,9.30
2023-02-09T09:13:11.193Z,9.70
2023-02-09T09:14:11.201Z,9.70
2023-02-09T09:15:11.144Z,9.40
2023-02-09T09:16:11.216Z,9.40
2023-02-09T09:17:11.157Z,9.90
2023-02-09T09:18:11.142Z,8.80
2023-02-09T09:19:11.139Z,9.20
2023-02-09T09:20:11.125Z,8.80
2023-02-09T09:21:12.298Z,9.80
2023-02-09T09:22:11.095Z,9.40
2023-02-09T09:23:11.078Z,8.60
2023-02-09T09:24:11.087Z,9.30
2023-02-09T09:25:11.067Z,8.50
2023-02-09T09:26:11.111Z,9.20
2023-02-09T09:27:11.045Z,8.30
2023-02-09T09:28:11.133Z,9.30
2023-02-09T09:29:11.022Z,8.90
2023-02-09T09:30:10.995Z,8.40
2023-02-09T09:31:11.100Z,9.70
2023-02-09T09:32:11.073Z,8.90
2023-02-09T09:33:11.015Z,9.00
2023-02-09T09:34:10.962Z,8.80
2023-02-09T09:35:10.946Z,8.90
2023-02-09T09:36:10.974Z,8.90
2023-02-09T09:37:10.900Z,9.70
2023-02-09T09:38:10.892Z,9.90
2023-02-09T09:39:10.915Z,9.40
2023-02-09T09:40:10.878Z,9.60
2023-02-09T09:41:10.908Z,9.30
2023-02-09T09:42:10.885Z,8.80
2023-02-09T09:43:10.883Z,9.30
2023-02-09T09:44:10.850Z,8.80
2023-02-09T09:45:10.825Z,9.40
2023-02-09T09:46:10.876Z,9.40
2023-02-09T09:47:10.800Z,8.90
2023-02-09T09:48:10.850Z,9.60
2023-02-09T09:49:10.786Z,9.40
2023-02-09T09:50:10.796Z,9.40
2023-02-09T09:51:10.825Z,10.20
2023-02-09T09:52:10.778Z,10.30
2023-02-09T09:53:10.750Z,9.80
2023-02-09T09:54:10.732Z,10.00
2023-02-09T09:55:10.709Z,11.50
2023-02-09T09:56:10.773Z,10.20
2023-02-09T09:57:10.714Z,9.40
2023-02-09T09:58:10.706Z,9.90
2023-02-09T09:59:10.689Z,9.60
2023-02-09T10:00:10.652Z,9.60
2023-02-09T10:01:10.754Z,9.20
2023-02-09T10:02:12.062Z,8.90
2023-02-09T10:03:10.626Z,9.20
2023-02-09T10:04:10.654Z,10.00
2023-02-09T10:05:10.604Z,9.60
2023-02-09T10:06:10.631Z,10.60
2023-02-09T10:07:10.592Z,9.80
2023-02-09T10:08:10.576Z,9.60
2023-02-09T10:09:10.575Z,10.30
2023-02-09T10:10:10.548Z,10.00
2023-02-09T10:11:10.598Z,10.90
2023-02-09T10:12:10.523Z,9.40
2023-02-09T10:13:10.533Z,10.10
2023-02-09T10:14:10.504Z,9.40
2023-02-09T10:15:10.470Z,10.40
2023-02-09T10:16:10.528Z,9.60
2023-02-09T10:17:10.525Z,10.90
2023-02-09T10:18:10.460Z,10.20
2023-02-09T10:19:10.465Z,9.50
2023-02-09T10:20:10.447Z,10.00
2023-02-09T10:21:10.441Z,9.60
2023-02-09T10:22:10.448Z,10.20
2023-02-09T10:23:10.405Z,9.30
2023-02-09T10:24:10.414Z,11.00
2023-02-09T10:25:10.385Z,9.40
2023-02-09T10:26:10.421Z,10.30
2023-02-09T10:27:10.381Z,10.60
2023-02-09T10:28:10.397Z,9.20
2023-02-09T10:29:10.345Z,10.60
2023-02-09T10:30:10.349Z,10.20
2023-02-09T10:31:10.518Z,10.10
2023-02-09T10:32:10.362Z,10.00
2023-02-09T10:33:10.273Z,10.60
2023-02-09T10:34:10.280Z,10.20
2023-02-09T10:35:10.240Z,9.50
2023-02-09T10:36:10.311Z,9.80
2023-02-09T10:37:10.245Z,10.10
2023-02-09T10:38:10.242Z,10.00
2023-02-09T10:39:10.219Z,10.00
2023-02-09T10:40:10.219Z,10.10
2023-02-09T10:41:10.274Z,9.80
2023-02-09T10:42:10.191Z,10.10
2023-02-09T10:43:10.174Z,9.00
2023-02-09T10:44:10.167Z,10.20
2023-02-09T10:45:10.150Z,9.90
2023-02-09T10:46:10.223Z,9.80
2023-02-09T10:47:10.151Z,10.60
2023-02-09T10:48:10.127Z,9.60
2023-02-09T10:49:10.142Z,10.80
2023-02-09T10:50:10.109Z,10.10
2023-02-09T10:51:10.122Z,10.80
2023-02-09T10:52:10.098Z,10.10
2023-02-09T10:53:10.062Z,11.10
2023-02-09T10:54:10.070Z,9.70
2023-02-09T10:55:10.043Z,9.60
2023-02-09T10:56:10.080Z,10.30
2023-02-09T10:57:10.024Z,9.90
2023-02-09T10:58:10.036Z,10.40
2023-02-09T10:59:10.004Z,10.10
2023-02-09T11:00:10.010Z,10.30
2023-02-09T11:01:10.113Z,8.80
2023-02-09T11:02:09.965Z,10.40
2023-02-09T11:03:09.944Z,9.40
2023-02-09T11:04:09.973Z,9.40
2023-02-09T11:05:09.922Z,8.60
2023-02-09T11:06:09.983Z,9.70
2023-02-09T11:07:09.911Z,9.00
2023-02-09T11:08:09.923Z,9.90
2023-02-09T11:09:09.874Z,8.70
2023-02-09T11:10:12.482Z,8.90
2023-02-09T11:11:09.891Z,7.90
2023-02-09T11:12:09.868Z,8.90
2023-02-09T11:13:09.855Z,8.10
2023-02-09T11:14:09.841Z,8.00
2023-02-09T11:15:09.827Z,9.40
2023-02-09T11:16:09.902Z,9.20
2023-02-09T11:17:09.856Z,8.70
2023-02-09T11:18:09.807Z,8.90
2023-02-09T11:19:11.273Z,8.40
2023-02-09T11:20:09.775Z,8.50
2023-02-09T11:21:09.784Z,8.20
2023-02-09T11:22:09.756Z,7.90
2023-02-09T11:23:09.772Z,8.70
2023-02-09T11:24:09.728Z,9.00
2023-02-09T11:25:09.698Z,8.90
2023-02-09T11:26:09.741Z,8.10
2023-02-09T11:27:09.695Z,8.10
2023-02-09T11:28:09.732Z,8.80
2023-02-09T11:29:09.688Z,9.00
2023-02-09T11:30:09.674Z,8.60
2023-02-09T11:31:09.787Z,8.30
2023-02-09T11:32:09.668Z,8.30
2023-02-09T11:33:09.630Z,8.20
2023-02-09T11:34:09.604Z,7.80
2023-02-09T11:35:09.631Z,7.70
2023-02-09T11:36:09.598Z,7.40
2023-02-09T11:37:09.623Z,8.50
2023-02-09T11:38:09.566Z,7.70
2023-02-09T11:39:09.551Z,8.00
2023-02-09T11:40:09.556Z,8.00
2023-02-09T11:41:09.567Z,7.90
2023-02-09T11:42:09.587Z,7.80
2023-02-09T11:43:09.546Z,7.90
2023-02-09T11:44:11.460Z,7.40
2023-02-09T11:45:09.490Z,7.60
2023-02-09T11:46:09.511Z,7.90
2023-02-09T11:47:09.514Z,7.60
2023-02-09T11:48:09.474Z,8.00
2023-02-09T11:49:09.456Z,7.20
2023-02-09T11:50:09.417Z,7.30
2023-02-09T11:51:09.434Z,6.80
2023-02-09T11:52:09.480Z,7.60
2023-02-09T11:53:09.411Z,7.60
2023-02-09T11:54:09.409Z,7.60
2023-02-09T11:55:09.368Z,8.10
2023-02-09T11:56:09.365Z,7.10
2023-02-09T11:57:09.404Z,7.70
2023-02-09T11:58:09.361Z,6.70
2023-02-09T11:59:09.337Z,7.70
2023-02-09T12:00:09.329Z,7.10
2023-02-09T12:01:15.598Z,7.00
2023-02-09T12:02:10.335Z,7.30
2023-02-09T12:03:09.353Z,7.60
2023-02-09T12:04:09.292Z,7.70
2023-02-09T12:05:09.270Z,6.90
2023-02-09T12:06:09.296Z,6.80
2023-02-09T12:07:09.298Z,6.50
2023-02-09T12:08:09.252Z,7.30
2023-02-09T12:09:09.236Z,7.20
2023-02-09T12:10:09.180Z,7.30
2023-02-09T12:11:09.228Z,7.90
2023-02-09T12:12:09.253Z,7.10
2023-02-09T12:13:09.199Z,7.80
2023-02-09T12:14:09.186Z,7.50
2023-02-09T12:15:09.146Z,7.10
2023-02-09T12:16:09.167Z,6.60
2023-02-09T12:17:09.180Z,7.20
2023-02-09T12:18:09.149Z,6.90
2023-02-09T12:19:09.099Z,7.30
2023-02-09T12:20:09.123Z,7.00
2023-02-09T12:21:09.106Z,7.20
2023-02-09T12:22:09.067Z,7.30
2023-02-09T12:23:09.106Z,7.60
2023-02-09T12:24:09.060Z,7.30
2023-02-09T12:25:09.052Z,7.20
2023-02-09T12:26:09.016Z,7.00
2023-02-09T12:27:09.025Z,6.50
2023-02-09T12:28:09.132Z,7.60
2023-02-09T12:29:09.019Z,6.90
2023-02-09T12:30:08.961Z,7.20
2023-02-09T12:31:09.093Z,6.70
2023-02-09T12:32:09.012Z,7.00
2023-02-09T12:33:08.992Z,6.60
2023-02-09T12:34:08.937Z,7.20
2023-02-09T12:35:08.939Z,7.50
2023-02-09T12:36:08.938Z,6.40
2023-02-09T12:37:08.904Z,7.30
2023-02-09T12:38:08.928Z,6.90
2023-02-09T12:39:08.894Z,7.10
2023-02-09T12:40:08.887Z,6.70
2023-02-09T12:41:08.945Z,6.70
2023-02-09T12:42:08.873Z,6.70